Bynum, Alabama
Current Conditions -  °F | °C
As of 8:15 PM on Monday 22 Dec 2014 (Local Time) from KASN Reporting Station
Moderate Rain Moderate Rain  
Wind Chill: 51°   Ceiling: 1200
Heat Index: 51°   Visibility: 10mi
Dew Point: 49°   Wind: 0mph
Humidity: 92%   Direction: NA
Pressure: 29.84"   Gusts: NA
Location:  33.61°N, 85.96°W
Report Text: KASN 230215Z AUTO 00000KT 10SM RA BKN012 OVC023 11/10 A2984 RMK AO2 T01070095
Loading
Personal Weather Stations






























Interactive Weather Map New forecast layout! Learn more

10-Day Weather Forecast

Advertisements
Track Severe Weather on mobile